Time;durP1;ratioP1;P1;durP2;ratioP2;P2;SDS_P1;SDS_P2;PMS_P1;PMS_P2;Temp;Humidity;BMP_temperature;BMP_pressure;BME280_temperature;BME280_humidity;BME280_pressure;Samples;Min_cycle;Max_cycle;Signal;HPM_P1;HPM_P2
2023/04/08 00:01:51;;;;;;;9.50;4.87;;;;;;;8.41;100.00;96394.66;5079890;28;20216;-72
2023/04/08 00:04:17;;;;;;;11.37;4.40;;;;;;;8.40;100.00;96395.63;5079648;28;20215;-72
2023/04/08 00:06:45;;;;;;;13.60;4.67;;;;;;;8.48;100.00;96397.28;5079071;28;20203;-70
2023/04/08 00:09:11;;;;;;;7.30;4.20;;;;;;;8.35;100.00;96405.78;5077492;28;20576;-70
2023/04/08 00:11:38;;;;;;;10.07;4.40;;;;;;;8.34;100.00;96398.88;5077861;28;20223;-71
2023/04/08 00:14:05;;;;;;;9.90;4.30;;;;;;;8.33;100.00;96403.31;5078619;28;21141;-71
2023/04/08 00:16:31;;;;;;;9.40;5.10;;;;;;;8.48;100.00;96404.34;5079117;28;20196;-71
2023/04/08 00:18:58;;;;;;;8.53;4.20;;;;;;;8.37;100.00;96409.09;5079275;28;20227;-71
2023/04/08 00:21:25;;;;;;;7.83;4.30;;;;;;;8.32;100.00;96408.72;5078997;28;20226;-71
2023/04/08 00:23:53;;;;;;;10.10;4.60;;;;;;;8.39;100.00;96413.19;5079695;28;20727;-72
2023/04/08 00:26:20;;;;;;;13.40;4.53;;;;;;;8.26;100.00;96414.59;5079463;28;20211;-72
2023/04/08 00:28:46;;;;;;;9.27;4.37;;;;;;;8.29;100.00;96415.13;5078787;28;20199;-72
2023/04/08 00:31:13;;;;;;;9.87;4.90;;;;;;;8.29;100.00;96411.69;5079342;28;20235;-71
2023/04/08 00:33:39;;;;;;;10.97;5.50;;;;;;;8.29;100.00;96409.88;5079578;28;20200;-71
2023/04/08 00:36:06;;;;;;;9.60;5.30;;;;;;;8.37;100.00;96414.34;5079809;28;20961;-71
2023/04/08 00:38:33;;;;;;;13.10;5.70;;;;;;;8.22;100.00;96410.66;5078745;28;20220;-71
2023/04/08 00:41:01;;;;;;;12.87;5.30;;;;;;;8.38;100.00;96408.09;5079533;28;20228;-72
2023/04/08 00:43:27;;;;;;;10.40;5.27;;;;;;;8.19;100.00;96411.78;5078662;28;20195;-72
2023/04/08 00:45:54;;;;;;;11.93;5.70;;;;;;;8.23;100.00;96409.69;5078385;28;20200;-72
2023/04/08 00:48:21;;;;;;;11.53;5.83;;;;;;;8.25;100.00;96411.19;5079049;28;20196;-72
2023/04/08 00:50:47;;;;;;;12.83;5.97;;;;;;;8.22;100.00;96414.13;5079590;28;20206;-71
2023/04/08 00:53:17;;;;;;;13.80;6.50;;;;;;;8.28;100.00;96415.28;5077916;28;20200;-72
2023/04/08 00:55:44;;;;;;;12.40;6.40;;;;;;;8.14;100.00;96424.56;5078812;28;20208;-72
2023/04/08 00:58:12;;;;;;;14.73;6.20;;;;;;;8.22;100.00;96418.53;5079178;28;20289;-72
2023/04/08 01:00:43;;;;;;;11.83;5.63;;;;;;;8.30;100.00;96413.31;5077796;28;20673;-72
2023/04/08 01:03:16;;;;;;;14.53;6.10;;;;;;;8.27;100.00;96418.88;5079338;28;20710;-71
2023/04/08 01:05:55;;;;;;;13.20;6.57;;;;;;;8.30;100.00;96414.16;5079589;28;20200;-71
2023/04/08 01:08:24;;;;;;;11.63;6.07;;;;;;;8.19;100.00;96405.75;5078824;28;20200;-71
2023/04/08 01:10:53;;;;;;;12.67;6.00;;;;;;;8.17;100.00;96407.69;5079302;28;20196;-71
2023/04/08 01:13:24;;;;;;;12.70;6.27;;;;;;;8.12;100.00;96415.19;5079145;28;20207;-71
2023/04/08 01:15:50;;;;;;;11.40;6.37;;;;;;;7.92;100.00;96413.78;5079279;28;20203;-71
2023/04/08 01:18:18;;;;;;;12.97;5.90;;;;;;;7.74;100.00;96410.41;5077722;28;20224;-71
2023/04/08 01:20:46;;;;;;;11.77;6.30;;;;;;;7.77;100.00;96406.66;5079403;28;20200;-72
2023/04/08 01:23:18;;;;;;;11.37;6.37;;;;;;;7.85;100.00;96407.50;5078930;28;20210;-72
2023/04/08 01:25:48;;;;;;;13.30;6.30;;;;;;;7.80;100.00;96412.41;5078891;28;20208;-71
2023/04/08 01:28:17;;;;;;;12.13;6.43;;;;;;;7.73;100.00;96403.50;5078298;28;20210;-71
2023/04/08 01:30:46;;;;;;;10.97;6.27;;;;;;;7.58;100.00;96410.31;5078757;28;20200;-71
2023/04/08 01:33:15;;;;;;;11.17;6.03;;;;;;;7.54;100.00;96398.47;5078288;28;20286;-71
2023/04/08 01:35:42;;;;;;;15.57;6.67;;;;;;;7.43;100.00;96401.38;5078695;28;20203;-72
2023/04/08 01:38:11;;;;;;;10.47;5.63;;;;;;;7.45;100.00;96399.41;5076626;28;20219;-72
2023/04/08 01:40:39;;;;;;;11.53;5.97;;;;;;;7.38;100.00;96398.38;5077767;28;20211;-72
2023/04/08 01:43:09;;;;;;;11.93;6.00;;;;;;;7.38;100.00;96403.63;5078019;28;20207;-72
2023/04/08 01:45:36;;;;;;;11.83;6.33;;;;;;;7.32;100.00;96408.66;5077968;28;21032;-71
2023/04/08 01:48:03;;;;;;;13.00;6.00;;;;;;;7.40;100.00;96400.84;5078355;28;20204;-71
2023/04/08 01:50:31;;;;;;;12.53;5.77;;;;;;;7.41;100.00;96405.94;5078769;28;20200;-72
2023/04/08 01:53:00;;;;;;;15.60;7.17;;;;;;;7.41;100.00;96402.50;5078285;28;20208;-72
2023/04/08 01:55:27;;;;;;;12.57;6.57;;;;;;;7.35;100.00;96406.53;5077552;28;20196;-72
2023/04/08 01:57:59;;;;;;;11.90;5.97;;;;;;;7.36;100.00;96402.13;5076989;28;20208;-72
2023/04/08 02:00:30;;;;;;;14.10;6.63;;;;;;;7.36;100.00;96405.56;5077938;28;20226;-71
2023/04/08 02:02:58;;;;;;;11.83;6.13;;;;;;;7.26;100.00;96406.66;5077400;28;20211;-70
2023/04/08 02:05:25;;;;;;;15.70;7.17;;;;;;;7.22;100.00;96407.09;5075368;28;20211;-71
2023/04/08 02:07:51;;;;;;;17.07;7.97;;;;;;;7.17;100.00;96402.31;5075505;28;20261;-70
2023/04/08 02:10:18;;;;;;;15.20;7.17;;;;;;;7.14;100.00;96409.66;5075581;28;20196;-71
2023/04/08 02:12:46;;;;;;;15.97;6.87;;;;;;;7.19;100.00;96410.84;5071506;28;20223;-70
2023/04/08 02:15:14;;;;;;;21.80;7.37;;;;;;;7.18;100.00;96408.38;5075127;28;20195;-71
2023/04/08 02:17:45;;;;;;;12.53;6.70;;;;;;;7.15;100.00;96411.31;5075905;28;20291;-70
2023/04/08 02:20:17;;;;;;;15.83;7.30;;;;;;;7.09;100.00;96411.91;5074990;28;20228;-70
2023/04/08 02:22:48;;;;;;;16.53;6.93;;;;;;;7.01;100.00;96409.22;5075420;28;20215;-71
2023/04/08 02:25:20;;;;;;;16.67;6.73;;;;;;;6.93;100.00;96406.53;5075275;28;20257;-70
2023/04/08 02:27:48;;;;;;;15.60;7.80;;;;;;;6.92;100.00;96407.50;5075131;28;20769;-70
2023/04/08 02:30:16;;;;;;;14.27;7.03;;;;;;;6.94;100.00;96409.00;5075298;28;20714;-71
2023/04/08 02:32:45;;;;;;;16.47;7.33;;;;;;;7.03;100.00;96402.06;5075139;28;20231;-71
2023/04/08 02:35:12;;;;;;;15.43;7.27;;;;;;;6.85;100.00;96403.88;5075430;28;20195;-70
2023/04/08 02:37:39;;;;;;;16.70;7.27;;;;;;;6.82;100.00;96410.22;5075081;28;20204;-70
2023/04/08 02:40:25;;;;;;;15.70;7.33;;;;;;;6.85;100.00;96409.09;5075730;28;20224;-71
2023/04/08 02:42:51;;;;;;;14.03;6.67;;;;;;;6.69;100.00;96412.41;5076101;28;20284;-70
2023/04/08 02:45:18;;;;;;;13.83;6.50;;;;;;;6.65;100.00;96415.44;5074925;28;20208;-70
2023/04/08 02:47:46;;;;;;;15.13;6.57;;;;;;;6.66;100.00;96409.25;5074729;28;20631;-71
2023/04/08 02:50:13;;;;;;;15.47;7.43;;;;;;;6.35;100.00;96420.19;5074577;28;20647;-70
2023/04/08 02:52:39;;;;;;;16.13;7.73;;;;;;;6.36;100.00;96422.66;5075425;28;20224;-70
2023/04/08 02:55:08;;;;;;;15.77;6.70;;;;;;;6.34;100.00;96416.75;5075357;28;20203;-70
2023/04/08 02:57:35;;;;;;;17.90;7.87;;;;;;;6.36;100.00;96420.03;5073431;28;20214;-72
2023/04/08 03:00:03;;;;;;;17.87;8.10;;;;;;;6.44;100.00;96408.84;5075528;28;20234;-70
2023/04/08 03:02:30;;;;;;;17.23;7.77;;;;;;;6.54;100.00;96415.66;5074416;28;20224;-70
2023/04/08 03:04:57;;;;;;;18.07;7.03;;;;;;;6.58;100.00;96421.44;5074634;28;20211;-71
2023/04/08 03:07:24;;;;;;;17.17;8.13;;;;;;;6.61;100.00;96421.16;5074189;28;20207;-70
2023/04/08 03:09:51;;;;;;;17.20;8.30;;;;;;;6.64;100.00;96418.22;5075496;28;20203;-70
2023/04/08 03:12:18;;;;;;;16.13;8.03;;;;;;;6.69;100.00;96414.19;5073858;28;20216;-71
2023/04/08 03:14:44;;;;;;;16.93;7.40;;;;;;;6.73;100.00;96411.13;5075428;28;20196;-70
2023/04/08 03:17:11;;;;;;;19.50;8.40;;;;;;;6.71;100.00;96399.97;5074894;28;20208;-70
2023/04/08 03:19:37;;;;;;;17.13;8.03;;;;;;;6.81;100.00;96407.72;5076979;28;20220;-70
2023/04/08 03:22:05;;;;;;;17.50;7.57;;;;;;;6.94;100.00;96408.19;5079260;28;20344;-71
2023/04/08 03:24:32;;;;;;;18.07;7.67;;;;;;;6.89;100.00;96405.22;5080199;28;20211;-70
2023/04/08 03:26:58;;;;;;;16.50;6.93;;;;;;;6.92;100.00;96404.91;5077656;28;20675;-70
2023/04/08 03:29:25;;;;;;;21.93;8.37;;;;;;;7.02;100.00;96406.44;5077607;28;20200;-71
2023/04/08 03:31:51;;;;;;;21.83;7.90;;;;;;;7.05;100.00;96405.31;5078750;28;20274;-70
2023/04/08 03:34:18;;;;;;;20.87;8.60;;;;;;;7.02;100.00;96411.69;5078418;28;20199;-71
2023/04/08 03:36:45;;;;;;;20.17;8.43;;;;;;;7.11;100.00;96409.97;5079057;28;20200;-71
2023/04/08 03:39:12;;;;;;;21.60;8.60;;;;;;;7.13;100.00;96402.75;5078299;28;20227;-70
2023/04/08 03:41:39;;;;;;;21.27;9.60;;;;;;;6.96;100.00;96408.84;5077125;28;21015;-70
2023/04/08 03:44:06;;;;;;;27.83;9.03;;;;;;;7.09;100.00;96411.91;5078269;28;20199;-70
2023/04/08 03:46:32;;;;;;;18.67;8.03;;;;;;;7.12;100.00;96414.25;5078357;28;20210;-70
2023/04/08 03:48:59;;;;;;;18.83;7.77;;;;;;;7.13;100.00;96416.72;5078505;28;20207;-71
2023/04/08 03:51:26;;;;;;;20.73;9.07;;;;;;;7.17;100.00;96409.38;5077877;28;20222;-70
2023/04/08 03:53:52;;;;;;;20.17;8.13;;;;;;;7.25;100.00;96412.06;5079713;28;20199;-70
2023/04/08 03:56:20;;;;;;;23.27;8.63;;;;;;;7.31;100.00;96407.81;5077779;28;20203;-70
2023/04/08 03:58:47;;;;;;;23.73;7.73;;;;;;;7.20;100.00;96417.72;5077136;28;20696;-70
2023/04/08 04:01:13;;;;;;;18.00;7.77;;;;;;;7.30;100.00;96413.22;5078466;28;20219;-71
2023/04/08 04:03:40;;;;;;;24.27;8.13;;;;;;;7.38;100.00;96413.28;5078662;28;20204;-70
2023/04/08 04:06:06;;;;;;;21.53;7.97;;;;;;;7.44;100.00;96418.72;5078121;28;20199;-70
2023/04/08 04:08:33;;;;;;;19.43;7.77;;;;;;;7.43;100.00;96409.25;5077078;28;20214;-71
2023/04/08 04:10:59;;;;;;;21.93;9.27;;;;;;;7.56;100.00;96414.91;5077300;28;20227;-71
2023/04/08 04:13:27;;;;;;;21.37;8.07;;;;;;;7.70;100.00;96416.94;5077620;28;20200;-71
2023/04/08 04:15:54;;;;;;;17.83;7.93;;;;;;;7.67;100.00;96414.63;5077951;28;20207;-70
2023/04/08 04:18:20;;;;;;;17.23;7.53;;;;;;;7.67;100.00;96426.91;5077909;28;20196;-70
2023/04/08 04:20:46;;;;;;;15.50;6.53;;;;;;;7.67;100.00;96422.47;5077969;28;20220;-70
2023/04/08 04:23:13;;;;;;;14.47;6.20;;;;;;;7.71;100.00;96426.44;5077491;28;20210;-70
2023/04/08 04:25:41;;;;;;;17.87;6.70;;;;;;;7.77;100.00;96425.84;5078354;28;20603;-70
2023/04/08 04:28:08;;;;;;;15.77;5.97;;;;;;;7.78;100.00;96427.47;5077503;28;20210;-71
2023/04/08 04:30:38;;;;;;;11.90;5.73;;;;;;;7.79;100.00;96421.25;5076450;28;20721;-70
2023/04/08 04:33:04;;;;;;;13.00;5.67;;;;;;;7.79;100.00;96425.66;5077817;28;20203;-70
2023/04/08 04:35:31;;;;;;;10.80;4.30;;;;;;;7.72;100.00;96428.09;5078234;28;20219;-70
2023/04/08 04:37:57;;;;;;;13.07;5.60;;;;;;;7.76;100.00;96428.63;5077332;28;20203;-70
2023/04/08 04:40:24;;;;;;;9.10;4.13;;;;;;;7.75;100.00;96433.06;5076671;28;20232;-70
2023/04/08 04:42:50;;;;;;;9.73;4.20;;;;;;;7.74;100.00;96427.94;5078152;28;20227;-70
2023/04/08 04:45:17;;;;;;;12.97;5.70;;;;;;;7.79;100.00;96434.38;5077071;28;20208;-71
2023/04/08 04:47:45;;;;;;;9.87;4.70;;;;;;;7.85;100.00;96438.19;5077191;28;20207;-70
2023/04/08 04:50:11;;;;;;;11.43;5.20;;;;;;;7.76;100.00;96439.09;5077205;28;20222;-71
2023/04/08 04:52:38;;;;;;;9.93;4.50;;;;;;;7.78;100.00;96443.22;5077550;28;20715;-71
2023/04/08 04:55:05;;;;;;;11.43;4.90;;;;;;;7.82;100.00;96449.78;5076915;28;20207;-70
2023/04/08 04:57:32;;;;;;;9.57;4.43;;;;;;;7.83;100.00;96446.22;5076866;28;20215;-70
2023/04/08 04:59:58;;;;;;;10.97;5.07;;;;;;;7.84;100.00;96454.88;5076830;28;20235;-71
2023/04/08 05:02:25;;;;;;;9.67;4.23;;;;;;;7.80;100.00;96454.38;5077318;28;20599;-70
2023/04/08 05:04:54;;;;;;;8.53;4.40;;;;;;;7.88;100.00;96455.25;5077623;28;20200;-71
2023/04/08 05:07:21;;;;;;;10.17;5.00;;;;;;;7.81;100.00;96457.81;5077188;28;20233;-70
2023/04/08 05:09:47;;;;;;;11.03;5.00;;;;;;;7.68;100.00;96460.84;5076744;28;20258;-72
2023/04/08 05:12:14;;;;;;;8.40;3.83;;;;;;;7.76;100.00;96458.28;5076781;28;20566;-71
2023/04/08 05:14:41;;;;;;;10.97;4.90;;;;;;;7.79;100.00;96460.63;5076526;28;20204;-71
2023/04/08 05:17:07;;;;;;;11.43;4.87;;;;;;;7.85;100.00;96459.16;5076552;28;21245;-70
2023/04/08 05:19:34;;;;;;;9.00;4.30;;;;;;;7.82;100.00;96460.28;5076138;28;20591;-70
2023/04/08 05:22:02;;;;;;;9.10;4.43;;;;;;;8.04;100.00;96460.59;5076960;28;20235;-70
2023/04/08 05:24:28;;;;;;;10.50;4.93;;;;;;;7.85;100.00;96467.84;5076907;28;20208;-71
2023/04/08 05:26:56;;;;;;;8.90;4.37;;;;;;;7.93;100.00;96467.91;5076816;28;20206;-71
2023/04/08 05:29:23;;;;;;;10.40;5.27;;;;;;;7.98;100.00;96468.25;5076006;28;20287;-70
2023/04/08 05:31:50;;;;;;;9.23;4.20;;;;;;;7.92;100.00;96467.06;5076857;28;20711;-71
2023/04/08 05:34:21;;;;;;;9.07;4.53;;;;;;;7.99;100.00;96472.53;5076325;28;21631;-70
2023/04/08 05:36:50;;;;;;;9.90;5.00;;;;;;;8.02;100.00;96472.22;5076552;28;20319;-71
2023/04/08 05:39:18;;;;;;;9.70;4.90;;;;;;;8.15;100.00;96477.91;5075982;28;20205;-71
2023/04/08 05:41:45;;;;;;;14.10;5.77;;;;;;;8.06;100.00;96478.81;5075188;28;20220;-70
2023/04/08 05:44:12;;;;;;;11.37;5.13;;;;;;;8.08;100.00;96485.56;5076714;28;20608;-71
2023/04/08 05:46:38;;;;;;;14.07;5.07;;;;;;;8.00;100.00;96489.91;5075744;28;20203;-71
2023/04/08 05:49:05;;;;;;;13.97;5.40;;;;;;;7.95;100.00;96479.06;5075903;28;20206;-71
2023/04/08 05:51:31;;;;;;;10.93;5.43;;;;;;;7.98;100.00;96481.38;5076028;28;20224;-70
2023/04/08 05:53:59;;;;;;;13.90;5.03;;;;;;;8.04;100.00;96480.75;5076938;28;20196;-72
2023/04/08 05:56:26;;;;;;;11.93;5.20;;;;;;;8.07;100.00;96483.06;5075894;28;20212;-70
2023/04/08 05:58:53;;;;;;;9.77;4.83;;;;;;;7.86;100.00;96490.47;5075905;28;20226;-71
2023/04/08 06:01:20;;;;;;;12.23;5.47;;;;;;;7.88;100.00;96488.53;5076081;28;20223;-70
2023/04/08 06:03:46;;;;;;;8.23;4.90;;;;;;;7.94;100.00;96493.16;5076454;28;21027;-73
2023/04/08 06:06:13;;;;;;;14.77;5.77;;;;;;;7.88;100.00;96491.97;5076116;28;20203;-71
2023/04/08 06:08:39;;;;;;;13.23;5.87;;;;;;;7.96;100.00;96497.25;5075625;28;20203;-70
2023/04/08 06:11:06;;;;;;;13.53;5.73;;;;;;;7.95;100.00;96494.81;5071815;28;20225;-72
2023/04/08 06:13:34;;;;;;;14.70;5.97;;;;;;;7.93;100.00;96499.41;5073151;28;20235;-72
2023/04/08 06:16:10;;;;;;;15.10;6.30;;;;;;;8.10;100.00;96501.13;5070289;28;20200;-71
2023/04/08 06:18:37;;;;;;;14.57;6.37;;;;;;;8.00;100.00;96505.66;5067567;28;20214;-71
2023/04/08 06:21:04;;;;;;;13.30;5.57;;;;;;;8.04;100.00;96507.84;5073669;28;20231;-71
2023/04/08 06:23:30;;;;;;;15.40;6.37;;;;;;;8.14;100.00;96507.75;5075772;28;20295;-70
2023/04/08 06:25:57;;;;;;;15.77;6.57;;;;;;;8.05;100.00;96498.97;5076561;28;20319;-71
2023/04/08 06:28:24;;;;;;;14.53;6.40;;;;;;;8.12;100.00;96507.03;5073276;28;20287;-71
2023/04/08 06:30:51;;;;;;;13.40;6.13;;;;;;;8.28;100.00;96501.91;5073757;28;20256;-71
2023/04/08 06:33:18;;;;;;;17.93;7.33;;;;;;;8.06;100.00;96500.63;5073085;28;20205;-72
2023/04/08 06:35:44;;;;;;;15.17;6.80;;;;;;;8.28;100.00;96504.53;5074180;28;20203;-72
2023/04/08 06:38:11;;;;;;;15.63;6.70;;;;;;;8.24;100.00;96508.47;5071890;28;20215;-71
2023/04/08 06:40:38;;;;;;;16.37;6.47;;;;;;;8.36;100.00;96508.00;5074261;28;20222;-72
2023/04/08 06:43:05;;;;;;;15.93;7.17;;;;;;;8.28;100.00;96509.78;5074969;28;20671;-71
2023/04/08 06:45:32;;;;;;;20.07;7.27;;;;;;;8.26;100.00;96512.59;5074780;28;20196;-70
2023/04/08 06:48:00;;;;;;;18.67;7.57;;;;;;;8.46;100.00;96508.72;5074954;28;20200;-70
2023/04/08 06:50:27;;;;;;;17.17;7.30;;;;;;;8.30;100.00;96507.81;5074247;28;20192;-71
2023/04/08 06:52:53;;;;;;;19.13;8.27;;;;;;;8.36;100.00;96515.06;5075071;28;20227;-73
2023/04/08 06:55:20;;;;;;;22.47;8.70;;;;;;;8.28;100.00;96507.97;5074223;28;20199;-71
2023/04/08 06:57:46;;;;;;;24.23;9.13;;;;;;;8.48;100.00;96513.81;5073988;28;20215;-71
2023/04/08 07:00:13;;;;;;;21.67;8.37;;;;;;;8.45;100.00;96514.94;5072908;28;20250;-71
2023/04/08 07:02:40;;;;;;;19.40;7.90;;;;;;;8.55;100.00;96519.13;5074554;28;20220;-72
2023/04/08 07:05:08;;;;;;;21.83;8.50;;;;;;;8.69;100.00;96520.31;5076027;28;20211;-72
2023/04/08 07:07:35;;;;;;;20.70;8.30;;;;;;;8.58;100.00;96518.00;5074785;28;20196;-71
2023/04/08 07:10:01;;;;;;;19.30;8.27;;;;;;;8.51;100.00;96523.03;5075320;28;20212;-71
2023/04/08 07:12:27;;;;;;;18.33;7.67;;;;;;;8.64;100.00;96528.69;5075313;28;20711;-71
2023/04/08 07:14:54;;;;;;;19.50;7.83;;;;;;;8.72;100.00;96527.91;5075080;28;20204;-70
2023/04/08 07:17:20;;;;;;;22.33;8.43;;;;;;;8.72;100.00;96525.28;5074199;28;20200;-71
2023/04/08 07:19:48;;;;;;;21.63;9.20;;;;;;;8.78;100.00;96525.44;5073423;28;20196;-70
2023/04/08 07:22:16;;;;;;;20.50;8.47;;;;;;;8.99;100.00;96523.22;5074060;28;20223;-70
2023/04/08 07:24:44;;;;;;;20.40;8.60;;;;;;;8.93;100.00;96529.09;5073055;28;20208;-72
2023/04/08 07:27:11;;;;;;;17.17;8.23;;;;;;;8.90;100.00;96534.69;5072738;28;20204;-71
2023/04/08 07:29:37;;;;;;;20.53;8.90;;;;;;;9.00;100.00;96535.38;5073660;28;20789;-70
2023/04/08 07:32:04;;;;;;;22.83;9.37;;;;;;;9.02;100.00;96533.38;5073869;28;20231;-70
2023/04/08 07:34:30;;;;;;;19.47;8.37;;;;;;;9.00;100.00;96539.78;5074222;28;20196;-71
2023/04/08 07:36:57;;;;;;;19.83;8.27;;;;;;;9.03;100.00;96535.03;5076231;28;20207;-70
2023/04/08 07:39:25;;;;;;;22.27;9.43;;;;;;;9.30;100.00;96534.78;5069220;28;20200;-71
2023/04/08 07:41:51;;;;;;;19.27;8.60;;;;;;;9.30;100.00;96526.88;5072544;28;20779;-72
2023/04/08 07:44:18;;;;;;;19.40;8.50;;;;;;;9.43;100.00;96529.84;5068407;28;20669;-72
2023/04/08 07:46:48;;;;;;;20.93;8.13;;;;;;;9.34;100.00;96530.81;5074779;28;20204;-70
2023/04/08 07:49:14;;;;;;;20.50;9.00;;;;;;;9.16;100.00;96540.66;5070929;28;20648;-70
2023/04/08 07:51:41;;;;;;;20.23;9.40;;;;;;;9.20;100.00;96532.31;5072266;28;20243;-71
2023/04/08 07:54:09;;;;;;;20.43;8.97;;;;;;;9.32;100.00;96536.25;5072911;28;20206;-71
2023/04/08 07:56:39;;;;;;;20.73;8.47;;;;;;;9.45;100.00;96533.16;5071996;28;20235;-71
2023/04/08 07:59:05;;;;;;;18.53;8.60;;;;;;;9.51;100.00;96543.00;5071544;28;20295;-71
2023/04/08 08:01:33;;;;;;;22.23;8.97;;;;;;;9.66;100.00;96542.22;5071378;28;20227;-71
2023/04/08 08:04:00;;;;;;;23.57;8.97;;;;;;;9.64;100.00;96541.56;5072303;28;20200;-72
2023/04/08 08:06:27;;;;;;;21.83;8.63;;;;;;;9.51;100.00;96543.00;5077279;28;20203;-70
2023/04/08 08:08:53;;;;;;;20.77;8.70;;;;;;;9.67;99.14;96548.28;5077997;28;20235;-71
2023/04/08 08:11:21;;;;;;;21.50;9.17;;;;;;;9.84;100.00;96553.41;5077710;28;20215;-73
2023/04/08 08:13:49;;;;;;;19.73;9.30;;;;;;;9.92;100.00;96556.03;5078111;28;20284;-71
2023/04/08 08:16:15;;;;;;;21.43;9.00;;;;;;;9.94;98.43;96554.03;5068586;28;20299;-71
2023/04/08 08:18:42;;;;;;;18.87;7.90;;;;;;;9.92;97.04;96556.84;5070355;28;20220;-72
2023/04/08 08:21:08;;;;;;;18.93;8.00;;;;;;;9.89;92.89;96562.44;5072309;28;20223;-71
2023/04/08 08:23:36;;;;;;;18.67;8.43;;;;;;;9.95;93.14;96556.53;5074719;28;20541;-71
2023/04/08 08:26:05;;;;;;;19.03;8.10;;;;;;;9.98;93.06;96560.66;5076556;28;20602;-72
2023/04/08 08:28:31;;;;;;;16.07;7.77;;;;;;;10.12;98.15;96557.34;5073105;28;20227;-71
2023/04/08 08:30:59;;;;;;;19.90;8.80;;;;;;;10.27;95.20;96563.59;5072255;28;20225;-72
2023/04/08 08:33:26;;;;;;;17.00;7.90;;;;;;;10.08;89.84;96570.03;5072268;28;20207;-73
2023/04/08 08:35:52;;;;;;;17.60;7.70;;;;;;;10.23;89.25;96575.44;5074771;28;20420;-72
2023/04/08 08:38:19;;;;;;;17.63;7.70;;;;;;;10.22;92.98;96569.38;5073548;28;20219;-71
2023/04/08 08:40:46;;;;;;;20.07;8.33;;;;;;;10.22;93.32;96568.53;5074960;28;20231;-71
2023/04/08 08:43:12;;;;;;;15.07;7.23;;;;;;;10.43;93.31;96572.28;5077414;28;20215;-70
2023/04/08 08:45:40;;;;;;;17.83;8.97;;;;;;;10.51;90.76;96569.63;5073440;28;20196;-70
2023/04/08 08:48:08;;;;;;;21.00;8.93;;;;;;;10.15;87.04;96584.19;5075321;28;20322;-71
2023/04/08 08:50:35;;;;;;;17.07;7.90;;;;;;;9.95;87.23;96576.75;5075961;28;20199;-71
2023/04/08 08:53:02;;;;;;;18.97;8.07;;;;;;;10.23;84.66;96581.53;5076800;28;20196;-72
2023/04/08 08:55:31;;;;;;;15.60;7.33;;;;;;;10.17;79.73;96584.84;5075089;28;20215;-70
2023/04/08 08:57:57;;;;;;;18.53;8.37;;;;;;;10.22;75.61;96579.91;5067490;28;20207;-71
2023/04/08 09:00:31;;;;;;;13.77;6.97;;;;;;;10.13;76.67;96590.59;5074550;28;20299;-71
2023/04/08 09:03:15;;;;;;;16.17;7.87;;;;;;;10.27;78.38;96587.28;5073980;28;20338;-71
2023/04/08 09:05:49;;;;;;;15.17;7.90;;;;;;;10.22;76.65;96589.59;5076569;28;20638;-70
2023/04/08 09:08:27;;;;;;;16.20;7.97;;;;;;;10.23;75.58;96591.25;5073812;28;20289;-71
2023/04/08 09:10:54;;;;;;;16.77;8.00;;;;;;;9.95;76.50;96590.75;5074369;28;20203;-71
2023/04/08 09:13:22;;;;;;;15.30;6.87;;;;;;;10.00;76.05;96598.16;5069908;28;20200;-73
2023/04/08 09:16:03;;;;;;;23.07;8.40;;;;;;;9.96;74.54;96596.88;5073580;28;20202;-70
2023/04/08 09:18:32;;;;;;;16.00;7.30;;;;;;;9.90;78.62;96600.94;5072950;28;20992;-72
2023/04/08 09:21:00;;;;;;;19.80;8.03;;;;;;;9.81;79.22;96607.19;5076415;28;20228;-71
2023/04/08 09:23:38;;;;;;;19.27;8.30;;;;;;;9.87;78.69;96590.72;5075868;28;20353;-70
2023/04/08 09:26:08;;;;;;;17.77;7.37;;;;;;;10.07;77.12;96594.72;5071666;28;20314;-70
2023/04/08 09:28:34;;;;;;;14.17;7.50;;;;;;;10.08;75.82;96592.91;5073767;28;20667;-71
2023/04/08 09:31:01;;;;;;;15.33;8.43;;;;;;;10.26;79.66;96596.19;5075864;28;20230;-72
2023/04/08 09:33:31;;;;;;;21.47;9.50;;;;;;;10.32;78.89;96599.81;5075308;28;20196;-71
2023/04/08 09:35:58;;;;;;;13.37;6.07;;;;;;;9.74;77.96;96595.66;5076528;28;20204;-72
2023/04/08 09:38:24;;;;;;;11.87;6.43;;;;;;;9.45;76.20;96604.97;5074560;28;20587;-71
2023/04/08 09:40:52;;;;;;;14.13;5.27;;;;;;;9.52;73.51;96603.38;5065821;28;20240;-72
2023/04/08 09:43:24;;;;;;;15.90;6.17;;;;;;;9.56;74.15;96606.47;5073260;28;20211;-71
2023/04/08 09:45:51;;;;;;;11.40;5.30;;;;;;;9.70;74.14;96604.06;5074518;28;20196;-69
2023/04/08 09:48:24;;;;;;;12.00;6.03;;;;;;;9.86;71.36;96593.53;5074625;28;20204;-71
2023/04/08 09:50:55;;;;;;;12.97;6.17;;;;;;;10.14;70.94;96598.31;5075356;28;20286;-72
2023/04/08 09:53:30;;;;;;;12.73;6.40;;;;;;;10.16;69.64;96591.09;5073367;28;20204;-70
2023/04/08 09:55:58;;;;;;;15.73;7.83;;;;;;;10.11;67.72;96590.75;5074160;28;20302;-71
2023/04/08 09:58:29;;;;;;;17.23;7.63;;;;;;;10.22;70.52;96593.06;5067529;28;20207;-71
2023/04/08 10:00:55;;;;;;;14.73;6.90;;;;;;;10.00;69.70;96590.28;5072422;28;20236;-71
2023/04/08 10:03:27;;;;;;;12.97;7.13;;;;;;;10.28;70.14;96594.22;5075515;28;20208;-71
2023/04/08 10:05:58;;;;;;;13.97;7.00;;;;;;;10.22;67.75;96600.13;5075308;28;20645;-71
2023/04/08 10:08:26;;;;;;;14.03;7.20;;;;;;;10.34;69.00;96592.53;5075372;28;20211;-71
2023/04/08 10:10:55;;;;;;;15.47;6.67;;;;;;;10.28;69.48;96599.47;5072512;28;20203;-71
2023/04/08 10:13:22;;;;;;;14.97;6.87;;;;;;;10.28;64.68;96597.66;5072806;28;20200;-71
2023/04/08 10:15:48;;;;;;;12.37;6.20;;;;;;;10.34;66.08;96594.38;5073949;28;20199;-71
2023/04/08 10:18:32;;;;;;;14.77;6.43;;;;;;;10.68;68.71;96597.56;5073708;28;20200;-70
2023/04/08 10:21:01;;;;;;;13.33;7.00;;;;;;;10.44;68.29;96595.00;5075057;28;20223;-71
2023/04/08 10:23:54;;;;;;;15.63;7.70;;;;;;;10.99;67.41;96601.94;5075353;28;20302;-72
2023/04/08 10:26:32;;;;;;;15.30;7.50;;;;;;;10.99;68.34;96586.94;5075349;28;20229;-71
2023/04/08 10:29:32;;;;;;;16.17;7.90;;;;;;;11.02;67.20;96597.16;5074541;28;20876;-71
2023/04/08 10:32:00;;;;;;;18.77;7.87;;;;;;;11.17;68.74;96591.97;5074688;28;20276;-70
2023/04/08 10:34:27;;;;;;;15.67;8.20;;;;;;;11.02;62.69;96596.31;5075459;28;21092;-70
2023/04/08 10:36:57;;;;;;;17.53;7.63;;;;;;;11.24;65.95;96585.84;5075118;28;20207;-71
2023/04/08 10:39:26;;;;;;;15.87;7.57;;;;;;;11.07;63.88;96594.81;5074556;28;20268;-71
2023/04/08 10:41:52;;;;;;;13.87;7.27;;;;;;;11.11;66.50;96595.28;5070761;28;20227;-71
2023/04/08 10:44:20;;;;;;;16.77;7.63;;;;;;;10.60;66.11;96593.16;5073906;28;20199;-71
2023/04/08 10:46:48;;;;;;;14.73;7.47;;;;;;;10.51;68.28;96591.53;5075171;28;20282;-70
2023/04/08 10:49:16;;;;;;;13.83;6.97;;;;;;;10.81;64.02;96582.06;5074962;28;20577;-71
2023/04/08 10:51:43;;;;;;;16.60;8.07;;;;;;;11.01;64.25;96584.94;5073013;28;20219;-71
2023/04/08 10:54:12;;;;;;;13.63;7.33;;;;;;;11.16;62.86;96592.97;5072021;28;20196;-71
2023/04/08 10:56:45;;;;;;;12.90;7.47;;;;;;;11.14;67.14;96590.50;5073853;28;20214;-71
2023/04/08 10:59:11;;;;;;;14.23;7.17;;;;;;;10.78;66.35;96591.16;5074775;28;20284;-71
2023/04/08 11:01:40;;;;;;;14.47;7.60;;;;;;;10.95;65.92;96590.91;5074645;28;20248;-71
2023/04/08 11:04:12;;;;;;;15.43;7.30;;;;;;;10.70;64.60;96592.97;5075802;28;20213;-72
2023/04/08 11:06:39;;;;;;;21.47;7.37;;;;;;;11.03;64.70;96584.78;5074164;28;20200;-71
2023/04/08 11:09:06;;;;;;;14.40;7.50;;;;;;;11.19;66.82;96584.72;5073447;28;20203;-71
2023/04/08 11:11:34;;;;;;;12.47;6.70;;;;;;;11.35;64.96;96585.44;5071162;28;20222;-71
2023/04/08 11:14:02;;;;;;;12.03;6.67;;;;;;;11.19;68.19;96593.44;5073641;28;20239;-71
2023/04/08 11:16:29;;;;;;;14.95;8.15;;;;;;;11.30;64.02;96590.44;5070792;28;20433;-71
2023/04/08 11:18:55;;;;;;;13.17;7.37;;;;;;;11.21;62.61;96596.72;5072899;28;20199;-71
2023/04/08 11:21:24;;;;;;;16.47;6.97;;;;;;;10.85;62.46;96596.56;5072832;28;20232;-70
2023/04/08 11:23:51;;;;;;;14.23;7.60;;;;;;;10.81;66.85;96593.44;5073621;28;20200;-70
2023/04/08 11:26:18;;;;;;;13.33;6.37;;;;;;;10.70;64.08;96585.06;5071584;28;20196;-70
2023/04/08 11:28:48;;;;;;;15.20;7.77;;;;;;;10.85;64.70;96588.66;5071365;28;20205;-71
2023/04/08 11:31:15;;;;;;;18.03;7.43;;;;;;;10.62;67.56;96595.63;5067477;28;20227;-71